Météo Nord-Pas-de-Calais   La météo au plus près de chez vous

Station météorologique

Observations météo à Montbeugny (03180)

03180001 275 m Dernier relevé à 22:36
19.9°C
Humidité 56 % Vent 6.8 km/h 1020.9 hPa

Journée consultée

Lundi 31 Août 2026

Synthèse de la journée

Périodes de référence en UTC

Température maximale

26°C

à 16:00

06h 06h

Température minimale

14°C

à 07:30

18h 18h

Rafale maximale

44 km/h

à 12:42

00h 00h

Précipitations

0 mm

Cumul quotidien

06h 06h

Graphiques de la journée

Heure locale Réduire

Données détaillées

Relevés météo

Pas de 6 minutes Afficher les relevés infra-horaires
Relevés météo détaillés à Montbeugny pour le Lundi 31 Août 2026
Heure Température °C Point de rosée °C Humidité % Vent moyen (raf.), km/h Précipitations mm Hauteur neige cm Pression hPa
22:36 19.9 °C 12.4 °C 62 % 3 km/h (6 km/h) 0 mm0 mm 0 cm 1021.5 hPa
22:30 20.3 °C 12.8 °C 62 % 4 km/h (7 km/h) 0 mm0 mm 0 cm 1021.4 hPa
22:24 20.5 °C 12.7 °C 61 % 5 km/h (9 km/h) 0 mm0 mm 0 cm 1021.4 hPa
22:18 20.7 °C 12.7 °C 60 % 6 km/h (9 km/h) 0 mm0 mm 0 cm 1021.3 hPa
22:12 21 °C 12.7 °C 59 % 6 km/h (9 km/h) 0 mm0 mm 0 cm 1021.3 hPa
22:06 21.2 °C 12.6 °C 58 % 6 km/h (10 km/h) 0 mm0 mm 0 cm 1021.2 hPa
22:00 21.4 °C 12.8 °C 58 % 7 km/h (11 km/h) 0 mm0 mm 0 cm 1021.2 hPa
21:54 21.4 °C 12.5 °C 57 % 6 km/h (11 km/h) 0 mm0 mm 0 cm 1021.1 hPa
21:48 21.5 °C 12.6 °C 57 % 6 km/h (10 km/h) 0 mm0 mm 0 cm 1021.1 hPa
21:42 21.6 °C 12.7 °C 57 % 6 km/h (12 km/h) 0 mm0 mm 0 cm 1021 hPa
21:36 21.6 °C 12.4 °C 56 % 7 km/h (14 km/h) 0 mm0 mm 0 cm 1020.9 hPa
21:30 21.6 °C 12.7 °C 57 % 6 km/h (14 km/h) 0 mm0 mm 0 cm 1020.9 hPa
21:24 21.6 °C 12.4 °C 56 % 4 km/h (7 km/h) 0 mm0 mm 0 cm 1020.8 hPa
21:18 21.5 °C 12.6 °C 57 % 4 km/h (8 km/h) 0 mm0 mm 0 cm 1020.8 hPa
21:12 21.6 °C 12.7 °C 57 % 5 km/h (9 km/h) 0 mm0 mm 0 cm 1020.7 hPa
21:06 21.5 °C 12.3 °C 56 % 3 km/h (9 km/h) 0 mm0 mm 0 cm 1020.6 hPa
21:00 21.5 °C 12.6 °C 57 % 2 km/h (5 km/h) 0 mm0 mm 0 cm 1020.6 hPa
20:54 21.6 °C 12.4 °C 56 % 4 km/h (8 km/h) 0 mm0 mm 0 cm 1020.5 hPa
20:48 21.7 °C 12.5 °C 56 % 6 km/h (13 km/h) 0 mm0 mm 0 cm 1020.5 hPa
20:42 21.9 °C 12.7 °C 56 % 7 km/h (13 km/h) 0 mm0 mm 0 cm 1020.4 hPa
20:36 21.8 °C 12.6 °C 56 % 6 km/h (10 km/h) 0 mm0 mm 0 cm 1020.4 hPa
20:30 21.9 °C 12.4 °C 55 % 6 km/h (10 km/h) 0 mm0 mm 0 cm 1020.3 hPa
20:24 22.1 °C 12.4 °C 54 % 6 km/h (11 km/h) 0 mm0 mm 0 cm 1020.2 hPa
20:18 22.3 °C 12.3 °C 53 % 7 km/h (11 km/h) 0 mm0 mm 0 cm 1020 hPa
20:12 22.4 °C 12.3 °C 53 % 6 km/h (10 km/h) 0 mm0 mm 0 cm 1020 hPa
20:06 22.5 °C 12.1 °C 52 % 6 km/h (9 km/h) 0 mm0 mm 0 cm 1019.9 hPa
20:00 22.4 °C 12.1 °C 52 % 5 km/h (9 km/h) 0 mm0 mm 0 cm 1019.9 hPa
19:54 22.5 °C 12.1 °C 52 % 6 km/h (11 km/h) 0 mm0 mm 0 cm 1019.9 hPa
19:48 22.7 °C 12 °C 51 % 8 km/h (13 km/h) 0 mm0 mm 0 cm 1019.9 hPa
19:42 22.9 °C 11.9 °C 50 % 10 km/h (17 km/h) 0 mm0 mm 0 cm 1019.9 hPa
19:36 23 °C 11.7 °C 49 % 11 km/h (17 km/h) 0 mm0 mm 0 cm 1019.9 hPa
19:30 23.3 °C 12 °C 49 % 11 km/h (17 km/h) 0 mm0 mm 0 cm 1019.8 hPa
19:24 23.5 °C 11.9 °C 48 % 11 km/h (18 km/h) 0 mm0 mm 0 cm 1019.8 hPa
19:18 23.7 °C 12 °C 48 % 12 km/h (20 km/h) 0 mm0 mm 0 cm 1019.8 hPa
19:12 23.9 °C 11.9 °C 47 % 12 km/h (19 km/h) 0 mm0 mm 0 cm 1019.8 hPa
19:06 24 °C 12 °C 47 % 10 km/h (19 km/h) 0 mm0 mm 0 cm 1019.8 hPa
19:00 24 °C 12 °C 47 % 9 km/h (18 km/h) 0 mm0 mm 0 cm 1019.8 hPa
18:54 24.2 °C 12.2 °C 47 % 10 km/h (18 km/h) 0 mm0 mm 0 cm 1019.7 hPa
18:48 24.3 °C 11.9 °C 46 % 10 km/h (15 km/h) 0 mm0 mm 0 cm 1019.6 hPa
18:42 24.3 °C 11.6 °C 45 % 9 km/h (16 km/h) 0 mm0 mm 0 cm 1019.7 hPa
18:36 24.1 °C 12.1 °C 47 % 10 km/h (19 km/h) 0 mm0 mm 0 cm 1019.6 hPa
18:30 24.4 °C 12.4 °C 47 % 10 km/h (19 km/h) 0 mm0 mm 0 cm 1019.7 hPa
18:24 24.4 °C 13 °C 49 % 10 km/h (19 km/h) 0 mm0 mm 0 cm 1019.7 hPa
18:18 23.9 °C 12.8 °C 50 % 11 km/h (19 km/h) 0 mm0 mm 0 cm 1019.8 hPa
18:12 23.8 °C 13.3 °C 52 % 13 km/h (24 km/h) 0 mm0 mm 0 cm 1019.8 hPa
18:06 23.8 °C 13.3 °C 52 % 16 km/h (29 km/h) 0 mm0 mm 0 cm 1019.9 hPa
18:00 24.5 °C 11.4 °C 44 % 15 km/h (29 km/h) 0 mm0 mm 0 cm 1019.8 hPa
17:54 24.5 °C 10.7 °C 42 % 15 km/h (27 km/h) 0 mm0 mm 0 cm 1019.8 hPa
17:48 24.1 °C 10.4 °C 42 % 17 km/h (32 km/h) 0 mm0 mm 0 cm 1019.9 hPa
17:42 24.1 °C 10.4 °C 42 % 16 km/h (32 km/h) 0 mm0 mm 0 cm 1020 hPa
17:36 24 °C 10.3 °C 42 % 16 km/h (32 km/h) 0 mm0 mm 0 cm 1020 hPa
17:30 23.9 °C 10.6 °C 43 % 19 km/h (32 km/h) 0 mm0 mm 0 cm 1020 hPa
17:24 24.2 °C 10.5 °C 42 % 19 km/h (28 km/h) 0 mm0 mm 0 cm 1020 hPa
17:18 24.4 °C 11 °C 43 % 19 km/h (27 km/h) 0 mm0 mm 0 cm 1019.8 hPa
17:12 24.2 °C 10.8 °C 43 % 17 km/h (27 km/h) 0 mm0 mm 0 cm 1019.9 hPa
17:06 24.1 °C 10.4 °C 42 % 16 km/h (27 km/h) 0 mm0 mm 0 cm 1019.9 hPa
17:00 24 °C 9.9 °C 41 % 18 km/h (27 km/h) 0 mm0 mm 0 cm 1019.9 hPa
16:54 24.3 °C 10.2 °C 41 % 18 km/h (27 km/h) 0 mm0 mm 0 cm 1019.8 hPa
16:48 24.3 °C 9.8 °C 40 % 22 km/h (34 km/h) 0 mm0 mm 0 cm 1019.7 hPa
16:42 24.6 °C 9.7 °C 39 % 23 km/h (34 km/h) 0 mm0 mm 0 cm 1019.7 hPa
16:36 24.9 °C 10 °C 39 % 23 km/h (33 km/h) 0 mm0 mm 0 cm 1019.7 hPa
16:30 25.6 °C 9.8 °C 37 % 23 km/h (33 km/h) 0 mm0 mm 0 cm 1019.6 hPa
16:24 25.5 °C 10.1 °C 38 % 21 km/h (37 km/h) 0 mm0 mm 0 cm 1019.5 hPa
16:18 25.3 °C 9.6 °C 37 % 26 km/h (37 km/h) 0 mm0 mm 0 cm 1019.5 hPa
16:12 25.5 °C 9.7 °C 37 % 23 km/h (37 km/h) 0 mm0 mm 0 cm 1019.5 hPa
16:06 24.1 °C 9.7 °C 40 % 19 km/h (34 km/h) 0 mm0 mm 0 cm 1019.7 hPa
16:00 24.9 °C 10 °C 39 % 19 km/h (33 km/h) 0 mm0 mm 0 cm 1019.6 hPa
15:54 25.8 °C 10 °C 37 % 23 km/h (35 km/h) 0 mm0 mm 0 cm 1019.6 hPa
15:48 25.7 °C 10.7 °C 39 % 19 km/h (37 km/h) 0 mm0 mm 0 cm 1019.6 hPa
15:42 25.4 °C 10 °C 38 % 15 km/h (27 km/h) 0 mm0 mm 0 cm 1019.5 hPa
15:36 25.6 °C 10.2 °C 38 % 20 km/h (35 km/h) 0 mm0 mm 0 cm 1019.6 hPa
15:30 25.4 °C 9.6 °C 37 % 26 km/h (35 km/h) 0 mm0 mm 0 cm 1019.6 hPa
15:24 25.7 °C 10.3 °C 38 % 24 km/h (36 km/h) 0 mm0 mm 0 cm 1019.6 hPa
15:18 25.5 °C 10.1 °C 38 % 21 km/h (35 km/h) 0 mm0 mm 0 cm 1019.6 hPa
15:12 25.1 °C 10.5 °C 40 % 21 km/h (32 km/h) 0 mm0 mm 0 cm 1019.7 hPa
15:06 24.4 °C 9.9 °C 40 % 22 km/h (38 km/h) 0 mm0 mm 0 cm 1019.7 hPa
15:00 24.4 °C 9.5 °C 39 % 25 km/h (38 km/h) 0 mm0 mm 0 cm 1019.8 hPa
14:54 25.2 °C 9.5 °C 37 % 26 km/h (36 km/h) 0 mm0 mm 0 cm 1019.8 hPa
14:48 25.2 °C 9.9 °C 38 % 23 km/h (36 km/h) 0 mm0 mm 0 cm 1019.8 hPa
14:42 24.5 °C 9.2 °C 38 % 22 km/h (33 km/h) 0 mm0 mm 0 cm 1019.8 hPa
14:36 24.4 °C 10.7 °C 42 % 21 km/h (36 km/h) 0 mm0 mm 0 cm 1019.7 hPa
14:30 23.7 °C 11.1 °C 45 % 22 km/h (36 km/h) 0 mm0 mm 0 cm 1019.9 hPa
14:24 24.2 °C 11.2 °C 44 % 21 km/h (32 km/h) 0 mm0 mm 0 cm 1019.7 hPa
14:18 23.6 °C 12.3 °C 49 % 21 km/h (33 km/h) 0 mm0 mm 0 cm 1019.9 hPa
14:12 24.2 °C 11.8 °C 46 % 23 km/h (38 km/h) 0 mm0 mm 0 cm 1019.8 hPa
14:06 23.3 °C 11.7 °C 48 % 19 km/h (31 km/h) 0 mm0 mm 0 cm 1019.9 hPa
14:00 23 °C 12.6 °C 52 % 18 km/h (30 km/h) 0 mm0 mm 0 cm 1020 hPa
13:54 23.3 °C 11.7 °C 48 % 18 km/h (30 km/h) 0 mm0 mm 0 cm 1020 hPa
13:48 22.7 °C 11.7 °C 50 % 19 km/h (28 km/h) 0 mm0 mm 0 cm 1020 hPa
13:42 22.8 °C 12.1 °C 51 % 20 km/h (26 km/h) 0 mm0 mm 0 cm 1020.1 hPa
13:36 22.4 °C 11.5 °C 50 % 22 km/h (35 km/h) 0 mm0 mm 0 cm 1020.1 hPa
13:30 23.1 °C 11.8 °C 49 % 25 km/h (37 km/h) 0 mm0 mm 0 cm 1020.2 hPa
13:24 22.7 °C 11.4 °C 49 % 22 km/h (37 km/h) 0 mm0 mm 0 cm 1020.2 hPa
13:18 23.1 °C 11.5 °C 48 % 20 km/h (31 km/h) 0 mm0 mm 0 cm 1020.1 hPa
13:12 23.3 °C 11.4 °C 47 % 24 km/h (38 km/h) 0 mm0 mm 0 cm 1020.1 hPa
13:06 23.3 °C 11.4 °C 47 % 26 km/h (38 km/h) 0 mm0 mm 0 cm 1020.3 hPa
13:00 23 °C 11.4 °C 48 % 27 km/h (37 km/h) 0 mm0 mm 0 cm 1020.2 hPa
12:54 23.2 °C 10.9 °C 46 % 26 km/h (37 km/h) 0 mm0 mm 0 cm 1020.3 hPa
12:48 23.2 °C 11.6 °C 48 % 27 km/h (44 km/h) 0 mm0 mm 0 cm 1020.3 hPa
12:42 22.8 °C 11.2 °C 48 % 28 km/h (44 km/h) 0 mm0 mm 0 cm 1020.3 hPa
12:36 23.2 °C 11.9 °C 49 % 24 km/h (36 km/h) 0 mm0 mm 0 cm 1020.3 hPa
12:30 22.3 °C 11.4 °C 50 % 24 km/h (35 km/h) 0 mm0 mm 0 cm 1020.3 hPa
12:24 22.3 °C 11.7 °C 51 % 27 km/h (40 km/h) 0 mm0 mm 0 cm 1020.4 hPa
12:18 22.8 °C 12.7 °C 53 % 22 km/h (40 km/h) 0 mm0 mm 0 cm 1020.3 hPa
12:12 21.7 °C 12.8 °C 57 % 21 km/h (33 km/h) 0 mm0 mm 0 cm 1020.4 hPa
12:06 21.6 °C 12.4 °C 56 % 25 km/h (35 km/h) 0 mm0 mm 0 cm 1020.4 hPa
12:00 22.3 °C 12.8 °C 55 % 26 km/h (35 km/h) 0 mm0 mm 0 cm 1020.2 hPa
11:54 21.7 °C 12.8 °C 57 % 26 km/h (35 km/h) 0 mm0 mm 0 cm 1020.3 hPa
11:48 21.2 °C 12.9 °C 59 % 26 km/h (35 km/h) 0 mm0 mm 0 cm 1020.3 hPa
11:42 20.9 °C 12.8 °C 60 % 28 km/h (38 km/h) 0 mm0 mm 0 cm 1020.3 hPa
11:36 21.2 °C 13.1 °C 60 % 28 km/h (37 km/h) 0 mm0 mm 0 cm 1020.3 hPa
11:30 20.8 °C 13 °C 61 % 31 km/h (42 km/h) 0 mm0 mm 0 cm 1020.3 hPa
11:24 21.2 °C 12.9 °C 59 % 28 km/h (42 km/h) 0 mm0 mm 0 cm 1020.3 hPa
11:18 21.4 °C 13.8 °C 62 % 23 km/h (40 km/h) 0 mm0 mm 0 cm 1020.1 hPa
11:12 20.9 °C 12.8 °C 60 % 26 km/h (40 km/h) 0 mm0 mm 0 cm 1020.3 hPa
11:06 20.9 °C 12.8 °C 60 % 28 km/h (37 km/h) 0 mm0 mm 0 cm 1020.2 hPa
11:00 21.1 °C 13.3 °C 61 % 25 km/h (35 km/h) 0 mm0 mm 0 cm 1020.2 hPa
10:54 20.3 °C 13.5 °C 65 % 27 km/h (38 km/h) 0 mm0 mm 0 cm 1020.2 hPa
10:48 20.4 °C 13.6 °C 65 % 27 km/h (39 km/h) 0 mm0 mm 0 cm 1020.2 hPa
10:42 20.2 °C 14.1 °C 68 % 22 km/h (36 km/h) 0 mm0 mm 0 cm 1020.1 hPa
10:36 19.5 °C 13.9 °C 70 % 18 km/h (32 km/h) 0 mm0 mm 0 cm 1020.2 hPa
10:30 18.9 °C 14 °C 73 % 12 km/h (25 km/h) 0 mm0 mm 0 cm 1020.3 hPa
10:24 18.5 °C 13.4 °C 72 % 12 km/h (18 km/h) 0 mm0 mm 0 cm 1020.2 hPa
10:18 18.7 °C 13.3 °C 71 % 13 km/h (18 km/h) 0 mm0 mm 0 cm 1020.1 hPa
10:12 18.8 °C 13.6 °C 72 % 12 km/h (17 km/h) 0 mm0 mm 0 cm 1020.1 hPa
10:06 19.3 °C 13.5 °C 69 % 12 km/h (19 km/h) 0 mm0 mm 0 cm 1019.9 hPa
10:00 19.3 °C 14.3 °C 73 % 14 km/h (23 km/h) 0 mm0 mm 0 cm 1019.9 hPa
09:54 18.9 °C 14.2 °C 74 % 14 km/h (23 km/h) 0 mm0 mm 0 cm 1020 hPa
09:48 18.5 °C 14.6 °C 78 % 12 km/h (18 km/h) 0 mm0 mm 0 cm 1020 hPa
09:42 17.7 °C 13.4 °C 76 % 13 km/h (20 km/h) 0 mm0 mm 0 cm 1020.1 hPa
09:36 17.4 °C 13.5 °C 78 % 14 km/h (23 km/h) 0 mm0 mm 0 cm 1020.2 hPa
09:30 17.2 °C 12.9 °C 76 % 14 km/h (23 km/h) 0 mm0 mm 0 cm 1020.2 hPa
09:24 17.2 °C 13.1 °C 77 % 14 km/h (20 km/h) 0 mm0 mm 0 cm 1020.1 hPa
09:18 17.2 °C 12.7 °C 75 % 17 km/h (28 km/h) 0 mm0 mm 0 cm 1020.1 hPa
09:12 17.4 °C 12.5 °C 73 % 19 km/h (28 km/h) 0 mm0 mm 0 cm 1020 hPa
09:06 17.9 °C 13 °C 73 % 18 km/h (27 km/h) 0 mm0 mm 0 cm 1019.9 hPa
09:00 17.6 °C 13.1 °C 75 % 14 km/h (25 km/h) 0 mm0 mm 0 cm 1019.8 hPa
08:54 17.5 °C 13.4 °C 77 % 12 km/h (19 km/h) 0 mm0 mm 0 cm 1019.7 hPa
08:48 17 °C 13.3 °C 79 % 10 km/h (18 km/h) 0 mm0 mm 0 cm 1019.7 hPa
08:42 16.6 °C 12.9 °C 79 % 9 km/h (14 km/h) 0 mm0 mm 0 cm 1019.6 hPa
08:36 16.7 °C 13 °C 79 % 9 km/h (15 km/h) 0 mm0 mm 0 cm 1019.5 hPa
08:30 16.5 °C 13 °C 80 % 10 km/h (15 km/h) 0 mm0 mm 0 cm 1019.5 hPa
08:24 16.5 °C 13 °C 80 % 11 km/h (16 km/h) 0 mm0 mm 0 cm 1019.4 hPa
08:18 16.3 °C 13 °C 81 % 13 km/h (17 km/h) 0 mm0 mm 0 cm 1019.4 hPa
08:12 15.9 °C 12.8 °C 82 % 11 km/h (17 km/h) 0 mm0 mm 0 cm 1019.4 hPa
08:06 15.6 °C 12.7 °C 83 % 9 km/h (15 km/h) 0 mm0 mm 0 cm 1019.4 hPa
08:00 15.3 °C 12.6 °C 84 % 8 km/h (13 km/h) 0 mm0 mm 0 cm 1019.5 hPa
07:54 14.9 °C 12.8 °C 87 % 6 km/h (13 km/h) 0 mm0 mm 0 cm 1019.3 hPa
07:48 14.6 °C 12.6 °C 88 % 6 km/h (10 km/h) 0 mm0 mm 0 cm 1019.3 hPa
07:42 14.3 °C 12.3 °C 88 % 6 km/h (10 km/h) 0 mm0 mm 0 cm 1019.4 hPa
07:36 14.1 °C 12.3 °C 89 % 8 km/h (12 km/h) 0 mm0 mm 0 cm 1019.4 hPa
07:30 14 °C 12 °C 88 % 8 km/h (12 km/h) 0 mm0 mm 0 cm 1019.4 hPa
07:24 14.3 °C 12 °C 86 % 9 km/h (13 km/h) 0 mm0 mm 0 cm 1019.3 hPa
07:18 14.9 °C 12.2 °C 84 % 9 km/h (13 km/h) 0 mm0 mm 0 cm 1019.1 hPa
07:12 15.1 °C 12.2 °C 83 % 9 km/h (13 km/h) 0 mm0 mm 0 cm 1019.1 hPa
07:06 15.2 °C 12.3 °C 83 % 9 km/h (14 km/h) 0 mm0 mm 0 cm 1019.1 hPa
07:00 15.4 °C 12.3 °C 82 % 10 km/h (15 km/h) 0 mm0 mm 0 cm 1019 hPa
06:54 15.5 °C 12.4 °C 82 % 11 km/h (18 km/h) 0 mm0 mm 0 cm 1019 hPa
06:48 15.3 °C 12.4 °C 83 % 11 km/h (18 km/h) 0 mm0 mm 0 cm 1019.1 hPa
06:42 15.4 °C 12.5 °C 83 % 12 km/h (18 km/h) 0 mm0 mm 0 cm 1019 hPa
06:36 15.4 °C 12.5 °C 83 % 12 km/h (18 km/h) 0 mm0 mm 0 cm 1019 hPa
06:30 15.1 °C 12.6 °C 85 % 10 km/h (17 km/h) 0 mm0 mm 0 cm 1019.1 hPa
06:24 15 °C 12.5 °C 85 % 9 km/h (14 km/h) 0 mm0 mm 0 cm 1019 hPa
06:18 15.1 °C 12.4 °C 84 % 9 km/h (14 km/h) 0 mm0 mm 0 cm 1019.1 hPa
06:12 15 °C 12.5 °C 85 % 9 km/h (13 km/h) 0 mm0 mm 0 cm 1019.1 hPa
06:06 14.8 °C 12.5 °C 86 % 10 km/h (13 km/h) 0 mm0 mm 0 cm 1019.1 hPa
06:00 14.7 °C 12.6 °C 87 % 9 km/h (12 km/h) 0.2 mm0.2 mm 0 cm 1019.1 hPa
05:54 14.8 °C 12.5 °C 86 % 8 km/h (11 km/h) 0 mm0 mm 0 cm 1019.1 hPa
05:48 14.9 °C 12.6 °C 86 % 8 km/h (11 km/h) 0 mm0 mm 0 cm 1019.1 hPa
05:42 14.9 °C 12.6 °C 86 % 8 km/h (13 km/h) 0 mm0 mm 0 cm 1019.2 hPa
05:36 14.8 °C 12.7 °C 87 % 9 km/h (18 km/h) 0 mm0 mm 0 cm 1019.3 hPa
05:30 14.5 °C 12.7 °C 89 % 9 km/h (14 km/h) 0 mm0 mm 0 cm 1019.3 hPa
05:24 14.2 °C 12.6 °C 90 % 8 km/h (13 km/h) 0 mm0 mm 0 cm 1019.3 hPa
05:18 14.3 °C 12.5 °C 89 % 8 km/h (13 km/h) 0 mm0 mm 0 cm 1019.3 hPa
05:12 14.4 °C 12.6 °C 89 % 8 km/h (13 km/h) 0 mm0 mm 0 cm 1019.4 hPa
05:06 14.5 °C 12.7 °C 89 % 8 km/h (12 km/h) 0 mm0 mm 0 cm 1019.5 hPa
05:00 14.4 °C 12.4 °C 88 % 8 km/h (10 km/h) 0 mm0 mm 0 cm 1019.5 hPa
04:54 14.6 °C 12.6 °C 88 % 8 km/h (12 km/h) 0 mm0 mm 0 cm 1019.4 hPa
04:48 14.7 °C 12.6 °C 87 % 8 km/h (12 km/h) 0 mm0 mm 0 cm 1019.3 hPa
04:42 14.8 °C 12.8 °C 88 % 9 km/h (13 km/h) 0 mm0 mm 0 cm 1019.3 hPa
04:36 14.9 °C 12.9 °C 88 % 10 km/h (14 km/h) 0 mm0 mm 0 cm 1019.3 hPa
04:30 14.6 °C 12.8 °C 89 % 9 km/h (13 km/h) 0 mm0 mm 0 cm 1019.2 hPa
04:24 14.7 °C 12.9 °C 89 % 9 km/h (13 km/h) 0 mm0 mm 0 cm 1019.2 hPa
04:18 14.7 °C 12.9 °C 89 % 9 km/h (13 km/h) 0 mm0 mm 0 cm 1019.2 hPa
04:12 14.9 °C 13.1 °C 89 % 9 km/h (13 km/h) 0 mm0 mm 0 cm 1019.2 hPa
04:06 15 °C 13 °C 88 % 10 km/h (14 km/h) 0 mm0 mm 0 cm 1019.1 hPa
04:00 15.1 °C 13.1 °C 88 % 11 km/h (15 km/h) 0 mm0 mm 0 cm 1019.1 hPa
03:54 15.3 °C 13.1 °C 87 % 13 km/h (18 km/h) 0 mm0 mm 0 cm 1019.2 hPa
03:48 15.4 °C 13.2 °C 87 % 14 km/h (21 km/h) 0 mm0 mm 0 cm 1019 hPa
03:42 15.4 °C 13.2 °C 87 % 13 km/h (21 km/h) 0 mm0 mm 0 cm 1019 hPa
03:36 15.4 °C 13.2 °C 87 % 14 km/h (18 km/h) 0 mm0 mm 0 cm 1019 hPa
03:30 15.5 °C 13.3 °C 87 % 14 km/h (18 km/h) 0 mm0 mm 0 cm 1019.1 hPa
03:24 15.5 °C 13.3 °C 87 % 14 km/h (18 km/h) 0 mm0 mm 0 cm 1019 hPa
03:18 15.3 °C 13.3 °C 88 % 13 km/h (18 km/h) 0 mm0 mm 0 cm 1019 hPa
03:12 15.2 °C 13.2 °C 88 % 12 km/h (15 km/h) 0 mm0 mm 0 cm 1019.1 hPa
03:06 15.3 °C 13.3 °C 88 % 12 km/h (15 km/h) 0 mm0 mm 0 cm 1018.9 hPa
03:00 15.4 °C 13.4 °C 88 % 12 km/h (16 km/h) 0 mm0 mm 0 cm 1018.9 hPa
02:54 15.4 °C 13.6 °C 89 % 11 km/h (15 km/h) 0 mm0 mm 0 cm 1018.9 hPa
02:48 15.4 °C 13.4 °C 88 % 11 km/h (17 km/h) 0 mm0 mm 0 cm 1018.9 hPa
02:42 15.6 °C 13.6 °C 88 % 12 km/h (19 km/h) 0 mm0 mm 0 cm 1018.9 hPa
02:36 15.6 °C 13.6 °C 88 % 11 km/h (19 km/h) 0 mm0 mm 0 cm 1018.8 hPa
02:30 15.7 °C 13.7 °C 88 % 13 km/h (19 km/h) 0 mm0 mm 0 cm 1018.8 hPa
02:24 15.7 °C 13.7 °C 88 % 14 km/h (19 km/h) 0 mm0 mm 0 cm 1018.7 hPa
02:18 15.9 °C 13.9 °C 88 % 14 km/h (19 km/h) 0 mm0 mm 0 cm 1018.6 hPa
02:12 16 °C 13.8 °C 87 % 14 km/h (21 km/h) 0 mm0 mm 0 cm 1018.5 hPa
02:06 16 °C 14 °C 88 % 15 km/h (21 km/h) 0 mm0 mm 0 cm 1018.5 hPa
02:00 16 °C 14 °C 88 % 15 km/h (23 km/h) 0 mm0 mm 0 cm 1018.5 hPa
01:54 15.8 °C 14 °C 89 % 15 km/h (22 km/h) 0 mm0 mm 0 cm 1018.7 hPa
01:48 15.9 °C 14.1 °C 89 % 15 km/h (22 km/h) 0 mm0 mm 0 cm 1018.6 hPa
01:42 15.8 °C 14.2 °C 90 % 14 km/h (19 km/h) 0 mm0 mm 0 cm 1018.6 hPa
01:36 15.9 °C 14.3 °C 90 % 15 km/h (20 km/h) 0 mm0 mm 0 cm 1018.7 hPa
01:30 16 °C 14.5 °C 91 % 14 km/h (20 km/h) 0 mm0 mm 0 cm 1018.5 hPa
01:24 15.8 °C 14.3 °C 91 % 13 km/h (17 km/h) 0 mm0 mm 0 cm 1018.7 hPa
01:18 15.9 °C 14.4 °C 91 % 13 km/h (16 km/h) 0 mm0 mm 0 cm 1018.6 hPa
01:12 15.8 °C 14.3 °C 91 % 12 km/h (16 km/h) 0 mm0 mm 0 cm 1018.6 hPa
01:06 15.9 °C 14.4 °C 91 % 11 km/h (16 km/h) 0 mm0 mm 0 cm 1018.6 hPa
01:00 16.1 °C 14.5 °C 90 % 11 km/h (16 km/h) 0 mm0 mm 0 cm 1018.5 hPa
00:54 16 °C 14.4 °C 90 % 11 km/h (15 km/h) 0 mm0 mm 0 cm 1018.4 hPa
00:48 16.1 °C 14.5 °C 90 % 10 km/h (14 km/h) 0 mm0 mm 0 cm 1018.3 hPa
00:42 16.2 °C 14.4 °C 89 % 10 km/h (14 km/h) 0 mm0 mm 0 cm 1018.3 hPa
00:36 16.4 °C 14.6 °C 89 % 10 km/h (15 km/h) 0 mm0 mm 0 cm 1018.3 hPa
00:30 16.4 °C 14.4 °C 88 % 10 km/h (14 km/h) 0 mm0 mm 0 cm 1018.3 hPa
00:24 16.6 °C 14.6 °C 88 % 10 km/h (15 km/h) 0 mm0 mm 0 cm 1018.2 hPa
00:18 16.6 °C 14.6 °C 88 % 10 km/h (15 km/h) 0 mm0 mm 0 cm 1018.1 hPa
00:12 16.7 °C 14.7 °C 88 % 10 km/h (14 km/h) 0 mm0 mm 0 cm 1017.9 hPa
00:06 16.7 °C 14.7 °C 88 % 10 km/h (14 km/h) 0 mm0 mm 0 cm 1017.7 hPa
00:00 16.7 °C 14.7 °C 88 % 9 km/h (15 km/h) 0 mm0 mm 0 cm 1017.8 hPa

Données via Météo-France

Relevés météo à Montbeugny

Cette page rassemble les observations de la station de Montbeugny : température, humidité, vent, précipitations et pression atmosphérique. Les graphiques facilitent le suivi de la journée, tandis que le tableau donne accès aux mesures horaires et infra-horaires disponibles.

Pour replacer ces mesures dans leur contexte, consultez la climatologie de Montbeugny ainsi que ses normales et records. Retrouvez aussi la carte des observations météo en temps réel.